createdAt,value
2018-12-22T00:00:50.857Z,6.40
2018-12-22T00:03:18.929Z,6.40
2018-12-22T00:05:46.984Z,6.40
2018-12-22T00:08:15.372Z,6.40
2018-12-22T00:10:43.536Z,6.30
2018-12-22T00:13:11.715Z,6.30
2018-12-22T00:15:40.193Z,6.30
2018-12-22T00:18:08.326Z,6.30
2018-12-22T00:20:37.377Z,6.30
2018-12-22T00:23:05.615Z,6.40
2018-12-22T00:25:33.710Z,6.40
2018-12-22T00:28:01.943Z,6.40
2018-12-22T00:30:30.213Z,6.40
2018-12-22T00:32:58.651Z,6.40
2018-12-22T00:35:26.780Z,6.40
2018-12-22T00:37:55.772Z,6.40
2018-12-22T00:40:25.421Z,6.40
2018-12-22T00:42:53.547Z,6.30
2018-12-22T00:45:21.919Z,6.30
2018-12-22T00:47:50.027Z,6.30
2018-12-22T00:50:18.152Z,6.30
2018-12-22T00:52:46.611Z,6.30
2018-12-22T00:55:14.679Z,6.30
2018-12-22T00:57:42.880Z,6.30
2018-12-22T01:00:11.201Z,6.30
2018-12-22T01:02:39.419Z,6.30
2018-12-22T01:05:07.513Z,6.20
2018-12-22T01:07:35.847Z,6.20
2018-12-22T01:10:05.358Z,6.20
2018-12-22T01:12:33.435Z,6.20
2018-12-22T01:15:01.570Z,6.20
2018-12-22T01:17:29.887Z,6.20
2018-12-22T01:19:57.947Z,6.20
2018-12-22T01:22:26.011Z,6.60
2018-12-22T01:24:54.393Z,6.20
2018-12-22T01:27:22.599Z,6.20
2018-12-22T01:29:50.676Z,6.80
2018-12-22T01:32:18.947Z,6.30
2018-12-22T01:34:47.011Z,6.30
2018-12-22T01:37:15.139Z,6.30
2018-12-22T01:39:43.447Z,6.30
2018-12-22T01:42:11.658Z,6.30
2018-12-22T01:44:39.762Z,6.20
2018-12-22T01:47:08.019Z,6.20
2018-12-22T01:49:36.279Z,6.10
2018-12-22T01:52:06.308Z,6.10
2018-12-22T01:54:34.406Z,6.10
2018-12-22T01:57:02.627Z,6.00
2018-12-22T01:59:30.691Z,6.00
2018-12-22T02:01:58.940Z,5.90
2018-12-22T02:04:27.106Z,5.90
2018-12-22T02:06:55.404Z,5.90
2018-12-22T02:09:23.635Z,5.90
2018-12-22T02:11:51.763Z,5.90
2018-12-22T02:14:19.979Z,6.00
2018-12-22T02:16:48.074Z,6.20
2018-12-22T02:19:16.125Z,5.90
2018-12-22T02:21:44.607Z,5.90
2018-12-22T02:24:12.788Z,6.00
2018-12-22T02:26:41.155Z,5.90
2018-12-22T02:29:09.256Z,5.90
2018-12-22T02:31:37.462Z,5.90
2018-12-22T02:34:05.844Z,5.90
2018-12-22T02:36:33.998Z,5.90
2018-12-22T02:39:02.157Z,5.90
2018-12-22T02:41:30.731Z,5.90
2018-12-22T02:43:58.983Z,5.90
2018-12-22T02:46:27.067Z,5.90
2018-12-22T02:48:55.259Z,5.90
2018-12-22T02:51:23.908Z,5.90
2018-12-22T02:53:52.995Z,5.90
2018-12-22T02:56:21.563Z,5.90
2018-12-22T02:58:50.365Z,5.90
2018-12-22T03:01:19.035Z,5.90
2018-12-22T03:03:47.627Z,5.90
2018-12-22T03:06:15.831Z,5.80
2018-12-22T03:08:43.931Z,5.80
2018-12-22T03:11:12.395Z,5.80
2018-12-22T03:13:40.455Z,5.80
2018-12-22T03:16:08.739Z,5.80
2018-12-22T03:18:37.244Z,5.80
2018-12-22T03:21:05.331Z,5.80
2018-12-22T03:23:34.228Z,5.90
2018-12-22T03:26:03.671Z,5.90
2018-12-22T03:28:31.919Z,5.90
2018-12-22T03:31:00.753Z,5.90
2018-12-22T03:33:29.548Z,5.90
2018-12-22T03:35:58.024Z,5.90
2018-12-22T03:38:27.901Z,5.90
2018-12-22T03:40:56.255Z,5.90
2018-12-22T03:43:24.898Z,5.90
2018-12-22T03:45:53.355Z,5.80
2018-12-22T03:48:21.676Z,5.90
2018-12-22T03:50:50.019Z,5.80
2018-12-22T03:53:18.295Z,5.80
2018-12-22T03:55:46.429Z,5.80
2018-12-22T03:58:15.370Z,5.80
2018-12-22T04:00:43.935Z,5.80
2018-12-22T04:03:12.560Z,5.80
2018-12-22T04:05:40.888Z,5.80
2018-12-22T04:08:10.212Z,5.80
2018-12-22T04:10:39.051Z,5.80
2018-12-22T04:13:07.392Z,5.80
2018-12-22T04:15:35.567Z,5.80
2018-12-22T04:18:04.558Z,5.70
2018-12-22T04:20:33.702Z,5.70
2018-12-22T04:23:01.946Z,5.70
2018-12-22T04:25:30.123Z,5.70
2018-12-22T04:27:58.331Z,5.70
2018-12-22T04:30:26.483Z,5.70
2018-12-22T04:32:54.539Z,5.70
2018-12-22T04:35:22.772Z,5.70
2018-12-22T04:37:51.016Z,5.70
2018-12-22T04:40:19.244Z,5.60
2018-12-22T04:42:47.341Z,5.60
2018-12-22T04:45:15.527Z,5.60
2018-12-22T04:47:43.897Z,5.60
2018-12-22T04:50:12.107Z,5.50
2018-12-22T04:52:40.298Z,4.80
2018-12-22T04:55:08.609Z,5.50
2018-12-22T04:57:36.766Z,5.40
2018-12-22T05:00:05.612Z,5.30
2018-12-22T05:02:33.763Z,5.30
2018-12-22T05:05:02.077Z,5.30
2018-12-22T05:07:30.312Z,5.30
2018-12-22T05:09:58.395Z,5.30
2018-12-22T05:12:26.456Z,5.30
2018-12-22T05:14:54.786Z,5.30
2018-12-22T05:17:22.913Z,5.30
2018-12-22T05:19:50.995Z,5.30
2018-12-22T05:22:19.063Z,5.30
2018-12-22T05:24:47.215Z,5.30
2018-12-22T05:27:15.268Z,5.30
2018-12-22T05:29:51.761Z,5.20
2018-12-22T05:32:14.711Z,5.20
2018-12-22T05:34:42.914Z,5.10
2018-12-22T05:37:11.200Z,5.10
2018-12-22T05:39:39.480Z,5.10
2018-12-22T05:42:08.170Z,5.10
2018-12-22T05:44:36.435Z,5.10
2018-12-22T05:47:05.135Z,5.20
2018-12-22T05:49:33.583Z,5.20
2018-12-22T05:52:01.804Z,5.20
2018-12-22T05:54:29.935Z,5.20
2018-12-22T05:56:58.475Z,5.20
2018-12-22T05:59:27.699Z,5.20
2018-12-22T06:01:55.972Z,5.20
2018-12-22T06:04:24.128Z,5.20
2018-12-22T06:06:52.215Z,5.20
2018-12-22T06:09:20.526Z,5.20
2018-12-22T06:11:48.674Z,5.20
2018-12-22T06:14:16.835Z,5.20
2018-12-22T06:16:45.115Z,5.20
2018-12-22T06:19:13.307Z,5.10
2018-12-22T06:21:41.443Z,5.10
2018-12-22T06:24:09.627Z,5.10
2018-12-22T06:26:37.692Z,5.10
2018-12-22T06:29:05.863Z,5.10
2018-12-22T06:31:34.382Z,5.10
2018-12-22T06:34:02.539Z,5.00
2018-12-22T06:36:30.663Z,5.00
2018-12-22T06:38:58.871Z,5.10
2018-12-22T06:41:27.208Z,5.10
2018-12-22T06:43:55.525Z,5.00
2018-12-22T06:46:23.792Z,5.00
2018-12-22T06:48:52.643Z,4.90
2018-12-22T06:51:20.803Z,4.90
2018-12-22T06:53:49.113Z,4.90
2018-12-22T06:56:17.261Z,4.90
2018-12-22T06:58:46.636Z,4.90
2018-12-22T07:01:16.164Z,4.90
2018-12-22T07:03:44.687Z,4.90
2018-12-22T07:06:13.505Z,4.90
2018-12-22T07:08:43.728Z,4.80
2018-12-22T07:11:11.820Z,4.80
2018-12-22T07:13:40.824Z,4.90
2018-12-22T07:16:09.683Z,4.90
2018-12-22T07:18:37.879Z,5.00
2018-12-22T07:21:06.120Z,5.00
2018-12-22T07:23:35.122Z,5.00
2018-12-22T07:26:03.679Z,5.00
2018-12-22T07:28:31.767Z,5.00
2018-12-22T07:31:00.671Z,5.10
2018-12-22T07:33:29.276Z,5.00
2018-12-22T07:35:57.811Z,5.00
2018-12-22T07:38:26.671Z,5.00
2018-12-22T07:40:55.235Z,5.00
2018-12-22T07:43:23.467Z,5.00
2018-12-22T07:45:51.543Z,5.00
2018-12-22T07:48:20.337Z,5.00
2018-12-22T07:50:48.483Z,5.00
2018-12-22T07:53:16.562Z,5.00
2018-12-22T07:55:44.837Z,5.00
2018-12-22T07:58:13.287Z,5.10
2018-12-22T08:00:41.679Z,5.10
2018-12-22T08:03:10.988Z,5.10
2018-12-22T08:05:39.201Z,5.10
2018-12-22T08:08:07.616Z,5.10
2018-12-22T08:10:35.939Z,5.00
2018-12-22T08:13:04.191Z,5.10
2018-12-22T08:15:32.647Z,5.00
2018-12-22T08:18:00.799Z,5.00
2018-12-22T08:20:28.998Z,5.00
2018-12-22T08:22:57.183Z,5.00
2018-12-22T08:25:25.295Z,5.00
2018-12-22T08:27:53.404Z,5.00
2018-12-22T08:30:22.119Z,5.00
2018-12-22T08:32:50.260Z,5.10
2018-12-22T08:35:18.508Z,5.10
2018-12-22T08:37:46.639Z,5.10
2018-12-22T08:40:14.772Z,5.20
2018-12-22T08:42:43.096Z,5.20
2018-12-22T08:45:14.832Z,5.20
2018-12-22T08:47:43.303Z,5.20
2018-12-22T08:50:11.419Z,5.20
2018-12-22T08:52:39.618Z,5.20
2018-12-22T08:55:08.252Z,5.20
2018-12-22T08:57:37.898Z,5.20
2018-12-22T09:00:09.387Z,5.20
2018-12-22T09:02:38.103Z,5.20
2018-12-22T09:05:06.753Z,5.20
2018-12-22T09:07:35.295Z,5.30
2018-12-22T09:10:04.126Z,5.30
2018-12-22T09:12:32.482Z,5.30
2018-12-22T09:15:00.690Z,5.30
2018-12-22T09:17:29.748Z,5.30
2018-12-22T09:19:58.893Z,5.30
2018-12-22T09:22:26.976Z,5.30
2018-12-22T09:24:55.124Z,5.30
2018-12-22T09:27:23.286Z,5.30
2018-12-22T09:29:51.365Z,5.30
2018-12-22T09:32:19.498Z,5.20
2018-12-22T09:34:47.677Z,5.30
2018-12-22T09:37:15.848Z,5.30
2018-12-22T09:39:43.923Z,5.30
2018-12-22T09:42:12.051Z,5.30
2018-12-22T09:44:40.215Z,5.30
2018-12-22T09:47:08.457Z,5.40
2018-12-22T09:49:36.534Z,5.40
2018-12-22T09:52:04.977Z,5.40
2018-12-22T09:54:33.272Z,5.40
2018-12-22T09:57:01.374Z,5.40
2018-12-22T09:59:29.765Z,5.50
2018-12-22T10:01:57.949Z,5.50
2018-12-22T10:04:26.032Z,5.50
2018-12-22T10:06:54.263Z,5.40
2018-12-22T10:09:22.324Z,5.30
2018-12-22T10:11:50.547Z,5.10
2018-12-22T10:14:18.823Z,5.10
2018-12-22T10:16:47.107Z,5.10
2018-12-22T10:19:15.172Z,5.10
2018-12-22T10:21:43.255Z,5.30
2018-12-22T10:24:11.401Z,5.80
2018-12-22T10:26:39.587Z,6.70
2018-12-22T10:29:07.780Z,6.70
2018-12-22T10:31:36.078Z,6.50
2018-12-22T10:34:04.265Z,6.30
2018-12-22T10:36:32.499Z,6.20
2018-12-22T10:39:00.583Z,6.30
2018-12-22T10:41:28.783Z,6.60
2018-12-22T10:43:57.251Z,6.60
2018-12-22T10:46:25.386Z,6.50
2018-12-22T10:48:53.540Z,6.30
2018-12-22T10:51:24.442Z,6.10
2018-12-22T10:53:51.684Z,6.10
2018-12-22T10:56:19.777Z,6.00
2018-12-22T10:58:48.794Z,5.90
2018-12-22T11:01:16.907Z,6.00
2018-12-22T11:03:45.052Z,6.10
2018-12-22T11:06:13.216Z,6.20
2018-12-22T11:08:42.429Z,6.10
2018-12-22T11:11:10.747Z,6.00
2018-12-22T11:13:38.858Z,6.00
2018-12-22T11:16:07.079Z,6.20
2018-12-22T11:18:35.222Z,6.40
2018-12-22T11:21:03.456Z,6.40
2018-12-22T11:23:31.948Z,6.40
2018-12-22T11:26:00.159Z,6.40
2018-12-22T11:28:28.419Z,6.30
2018-12-22T11:30:56.623Z,6.10
2018-12-22T11:33:24.711Z,6.00
2018-12-22T11:35:52.967Z,6.00
2018-12-22T11:38:21.159Z,6.00
2018-12-22T11:40:50.173Z,6.00
2018-12-22T11:43:18.298Z,5.90
2018-12-22T11:45:46.643Z,5.90
2018-12-22T11:50:30.744Z,5.90
2018-12-22T11:52:59.040Z,6.00
2018-12-22T11:55:27.259Z,6.00
2018-12-22T11:57:55.767Z,6.10
2018-12-22T12:00:24.103Z,6.10
2018-12-22T12:02:52.239Z,5.90
2018-12-22T12:05:20.399Z,5.90
2018-12-22T12:07:48.553Z,5.90
2018-12-22T12:10:16.735Z,6.00
2018-12-22T12:12:45.136Z,6.10
2018-12-22T12:15:17.227Z,6.20
2018-12-22T12:17:58.007Z,6.30
2018-12-22T12:20:26.123Z,6.20
2018-12-22T12:22:54.319Z,6.10
2018-12-22T12:25:22.432Z,6.10
2018-12-22T12:27:51.308Z,6.10
2018-12-22T12:30:19.459Z,6.00
2018-12-22T12:32:47.823Z,6.00
2018-12-22T12:35:16.017Z,6.00
2018-12-22T12:37:45.035Z,6.00
2018-12-22T12:40:14.723Z,6.00
2018-12-22T12:42:43.211Z,5.90
2018-12-22T12:46:43.068Z,5.90
2018-12-22T12:49:11.615Z,5.90
2018-12-22T12:51:40.227Z,6.00
2018-12-22T12:54:08.531Z,6.00
2018-12-22T12:56:39.443Z,6.00
2018-12-22T12:59:07.695Z,6.00
2018-12-22T13:01:36.533Z,5.90
2018-12-22T13:04:04.788Z,5.90
2018-12-22T13:06:33.336Z,5.90
2018-12-22T13:09:01.935Z,6.00
2018-12-22T13:11:30.027Z,5.90
2018-12-22T13:17:37.030Z,5.90
2018-12-22T13:20:06.595Z,6.10
2018-12-22T13:22:34.710Z,6.00
2018-12-22T13:25:03.203Z,6.00
2018-12-22T13:27:31.308Z,6.60
2018-12-22T13:29:59.375Z,6.00
2018-12-22T13:32:27.855Z,6.00
2018-12-22T13:34:57.059Z,6.10
2018-12-22T13:37:25.665Z,6.00
2018-12-22T13:39:53.828Z,6.00
2018-12-22T13:42:22.063Z,6.00
2018-12-22T13:44:50.341Z,6.00
2018-12-22T13:47:18.711Z,6.10
2018-12-22T13:49:47.158Z,6.00
2018-12-22T13:52:15.421Z,6.00
2018-12-22T13:54:43.875Z,6.00
2018-12-22T13:57:12.428Z,6.00
2018-12-22T13:59:41.357Z,6.00
2018-12-22T14:02:17.984Z,6.10
2018-12-22T14:04:41.889Z,6.10
2018-12-22T14:07:11.648Z,6.10
2018-12-22T14:09:39.789Z,6.10
2018-12-22T14:12:08.567Z,6.10
2018-12-22T14:14:39.188Z,6.10
2018-12-22T14:17:12.931Z,6.10
2018-12-22T14:19:45.512Z,6.10
2018-12-22T14:22:13.835Z,6.00
2018-12-22T14:24:45.443Z,6.00
2018-12-22T14:27:13.877Z,6.00
2018-12-22T14:29:42.435Z,6.00
2018-12-22T14:32:10.623Z,6.00
2018-12-22T14:34:57.020Z,5.90
2018-12-22T14:37:25.124Z,5.90
2018-12-22T14:39:53.388Z,5.90
2018-12-22T14:42:21.623Z,5.90
2018-12-22T14:44:49.870Z,5.90
2018-12-22T14:47:18.061Z,5.90
2018-12-22T14:49:46.384Z,6.00
2018-12-22T14:52:14.625Z,5.90
2018-12-22T14:54:42.855Z,5.90
2018-12-22T14:57:11.996Z,5.90
2018-12-22T14:59:40.236Z,5.90
2018-12-22T15:02:08.549Z,5.90
2018-12-22T15:04:36.703Z,5.80
2018-12-22T15:07:05.895Z,5.80
2018-12-22T15:09:34.027Z,5.80
2018-12-22T15:12:02.304Z,5.90
2018-12-22T15:14:30.583Z,5.90
2018-12-22T15:16:58.759Z,5.90
2018-12-22T15:19:27.116Z,5.90
2018-12-22T15:21:57.711Z,6.00
2018-12-22T15:24:25.952Z,6.00
2018-12-22T15:26:54.183Z,6.00
2018-12-22T15:29:22.475Z,6.00
2018-12-22T15:31:50.691Z,6.00
2018-12-22T15:34:18.861Z,6.00
2018-12-22T15:36:47.015Z,6.00
2018-12-22T15:39:15.171Z,6.00
2018-12-22T15:41:43.287Z,6.00
2018-12-22T15:44:11.452Z,6.10
2018-12-22T15:46:39.652Z,6.10
2018-12-22T15:49:08.115Z,6.10
2018-12-22T15:51:36.295Z,6.10
2018-12-22T15:54:04.602Z,6.10
2018-12-22T15:56:32.740Z,6.10
2018-12-22T15:59:01.199Z,6.00
2018-12-22T16:01:29.332Z,6.00
2018-12-22T16:03:57.527Z,6.00
2018-12-22T16:06:25.743Z,5.90
2018-12-22T16:08:54.014Z,5.90
2018-12-22T16:11:22.160Z,5.90
2018-12-22T16:13:50.340Z,6.00
2018-12-22T16:16:18.634Z,6.00
2018-12-22T16:18:46.806Z,5.90
2018-12-22T16:21:14.983Z,5.90
2018-12-22T16:23:43.064Z,5.90
2018-12-22T16:26:11.127Z,5.90
2018-12-22T16:28:43.948Z,5.90
2018-12-22T16:31:12.094Z,5.80
2018-12-22T16:33:40.244Z,5.80
2018-12-22T16:36:08.472Z,5.80
2018-12-22T16:38:36.660Z,5.80
2018-12-22T16:41:04.951Z,5.70
2018-12-22T16:43:33.100Z,5.70
2018-12-22T16:46:01.364Z,5.70
2018-12-22T16:48:29.551Z,5.70
2018-12-22T16:50:57.859Z,5.70
2018-12-22T16:53:26.195Z,5.80
2018-12-22T16:55:54.471Z,5.80
2018-12-22T16:58:39.207Z,5.80
2018-12-22T17:01:15.186Z,5.90
2018-12-22T17:03:43.992Z,5.90
2018-12-22T17:06:13.043Z,5.90
2018-12-22T17:08:41.292Z,5.80
2018-12-22T17:11:09.559Z,5.90
2018-12-22T17:13:37.692Z,5.80
2018-12-22T17:16:05.951Z,5.80
2018-12-22T17:18:34.291Z,5.70
2018-12-22T17:21:12.459Z,5.70
2018-12-22T17:23:45.854Z,5.70
2018-12-22T17:26:14.147Z,5.70
2018-12-22T17:28:42.443Z,5.80
2018-12-22T17:31:10.582Z,5.80
2018-12-22T17:33:38.799Z,5.80
2018-12-22T17:36:08.250Z,5.80
2018-12-22T17:38:37.296Z,5.90
2018-12-22T17:41:05.816Z,5.90
2018-12-22T17:43:35.479Z,5.90
2018-12-22T17:46:03.628Z,6.00
2018-12-22T17:48:31.915Z,5.90
2018-12-22T17:51:00.112Z,5.90
2018-12-22T17:53:28.919Z,5.90
2018-12-22T17:55:57.320Z,5.90
2018-12-22T17:58:26.300Z,5.90
2018-12-22T18:00:54.667Z,5.90
2018-12-22T18:03:27.548Z,5.90
2018-12-22T18:05:55.983Z,5.90
2018-12-22T18:08:24.334Z,5.90
2018-12-22T18:10:52.543Z,5.90
2018-12-22T18:13:21.453Z,6.00
2018-12-22T18:15:49.551Z,5.90
2018-12-22T18:18:17.835Z,5.80
2018-12-22T18:20:46.091Z,6.00
2018-12-22T18:23:14.537Z,6.00
2018-12-22T18:25:43.367Z,6.00
2018-12-22T18:28:11.467Z,5.90
2018-12-22T18:30:39.584Z,6.20
2018-12-22T18:33:08.793Z,5.80
2018-12-22T18:35:37.132Z,5.80
2018-12-22T18:38:09.975Z,5.80
2018-12-22T18:40:38.119Z,5.80
2018-12-22T18:43:07.397Z,5.90
2018-12-22T18:45:35.887Z,5.90
2018-12-22T18:48:04.517Z,5.90
2018-12-22T18:50:32.979Z,5.80
2018-12-22T18:53:01.054Z,5.80
2018-12-22T18:55:29.702Z,5.90
2018-12-22T18:58:00.117Z,5.90
2018-12-22T19:00:28.923Z,5.90
2018-12-22T19:02:57.090Z,5.80
2018-12-22T19:05:25.366Z,5.80
2018-12-22T19:07:57.112Z,5.70
2018-12-22T19:10:30.096Z,5.70
2018-12-22T19:14:01.099Z,5.70
2018-12-22T19:16:29.224Z,5.60
2018-12-22T19:18:57.387Z,5.60
2018-12-22T19:21:26.266Z,5.50
2018-12-22T19:23:54.402Z,5.60
2018-12-22T19:26:22.587Z,5.50
2018-12-22T19:28:50.896Z,5.50
2018-12-22T19:31:19.028Z,5.60
2018-12-22T19:33:53.446Z,5.60
2018-12-22T19:36:17.691Z,5.60
2018-12-22T19:38:45.845Z,5.60
2018-12-22T19:41:14.007Z,5.60
2018-12-22T19:43:42.748Z,5.60
2018-12-22T19:46:10.895Z,5.60
2018-12-22T19:48:39.103Z,5.60
2018-12-22T19:51:07.359Z,5.60
2018-12-22T19:53:35.481Z,5.60
2018-12-22T19:56:03.732Z,5.60
2018-12-22T19:58:31.972Z,5.60
2018-12-22T20:01:00.179Z,5.60
2018-12-22T20:03:28.844Z,5.60
2018-12-22T20:05:56.971Z,5.50
2018-12-22T20:08:25.104Z,5.50
2018-12-22T20:10:53.204Z,5.50
2018-12-22T20:13:21.289Z,5.50
2018-12-22T20:15:49.582Z,5.50
2018-12-22T20:18:17.740Z,5.50
2018-12-22T20:20:45.831Z,5.50
2018-12-22T20:23:14.101Z,5.50
2018-12-22T20:25:42.718Z,5.50
2018-12-22T20:28:10.956Z,5.50
2018-12-22T20:30:39.158Z,5.50
2018-12-22T20:33:08.031Z,5.50
2018-12-22T20:35:36.099Z,5.50
2018-12-22T20:38:04.417Z,5.50
2018-12-22T20:40:33.475Z,6.00
2018-12-22T20:43:01.724Z,5.60
2018-12-22T20:45:29.867Z,5.60
2018-12-22T20:47:57.939Z,5.60
2018-12-22T20:50:26.179Z,5.60
2018-12-22T20:52:54.251Z,5.50
2018-12-22T20:55:22.479Z,5.50
2018-12-22T20:57:50.975Z,5.40
2018-12-22T21:00:19.151Z,5.30
2018-12-22T21:02:47.403Z,5.20
2018-12-22T21:05:17.207Z,5.30
2018-12-22T21:07:45.379Z,5.30
2018-12-22T21:10:13.486Z,5.30
2018-12-22T21:12:41.631Z,5.30
2018-12-22T21:15:09.895Z,5.30
2018-12-22T21:17:38.012Z,5.30
2018-12-22T21:20:06.719Z,5.30
2018-12-22T21:22:34.871Z,5.40
2018-12-22T21:25:03.245Z,5.40
2018-12-22T21:27:31.399Z,5.30
2018-12-22T21:29:59.495Z,5.30
2018-12-22T21:32:27.795Z,5.20
2018-12-22T21:34:56.614Z,5.20
2018-12-22T21:37:24.697Z,5.30
2018-12-22T21:39:52.791Z,5.80
2018-12-22T21:42:20.859Z,5.50
2018-12-22T21:44:48.975Z,5.50
2018-12-22T21:47:17.124Z,5.50
2018-12-22T21:49:45.375Z,5.50
2018-12-22T21:52:13.571Z,5.50
2018-12-22T21:54:41.847Z,5.50
2018-12-22T21:57:09.918Z,5.50
2018-12-22T21:59:38.079Z,5.50
2018-12-22T22:02:06.339Z,5.50
2018-12-22T22:04:37.155Z,5.40
2018-12-22T22:07:04.690Z,5.40
2018-12-22T22:09:33.128Z,5.40
2018-12-22T22:12:01.280Z,5.40
2018-12-22T22:14:29.351Z,5.40
2018-12-22T22:16:57.787Z,5.50
2018-12-22T22:19:25.941Z,5.40
2018-12-22T22:21:54.188Z,5.30
2018-12-22T22:24:22.455Z,5.30
2018-12-22T22:26:51.287Z,5.30
2018-12-22T22:29:19.363Z,5.30
2018-12-22T22:31:47.693Z,5.40
2018-12-22T22:34:15.825Z,5.40
2018-12-22T22:36:43.955Z,5.30
2018-12-22T22:39:12.044Z,5.30
2018-12-22T22:41:40.211Z,5.30
2018-12-22T22:44:08.503Z,5.30
2018-12-22T22:46:36.676Z,5.30
2018-12-22T22:49:04.824Z,5.30
2018-12-22T22:51:33.846Z,5.40
2018-12-22T22:54:01.979Z,5.40
2018-12-22T22:56:30.115Z,5.50
2018-12-22T22:58:58.269Z,5.50
2018-12-22T23:01:26.576Z,5.50
2018-12-22T23:03:55.969Z,5.60
2018-12-22T23:06:24.873Z,5.60
2018-12-22T23:08:53.664Z,5.60
2018-12-22T23:11:23.251Z,5.60
2018-12-22T23:13:51.766Z,5.60
2018-12-22T23:16:19.971Z,5.60
2018-12-22T23:18:48.815Z,5.60
2018-12-22T23:21:17.197Z,5.60
2018-12-22T23:23:45.303Z,5.60
2018-12-22T23:26:13.842Z,5.70
2018-12-22T23:28:42.459Z,5.70
2018-12-22T23:31:10.647Z,5.70
2018-12-22T23:33:39.727Z,5.70
2018-12-22T23:36:09.483Z,5.70
2018-12-22T23:38:37.778Z,5.70
2018-12-22T23:41:06.619Z,5.70
2018-12-22T23:43:35.224Z,5.70
2018-12-22T23:46:03.747Z,5.80
2018-12-22T23:48:31.907Z,5.80
2018-12-22T23:51:00.012Z,5.80
2018-12-22T23:53:28.499Z,5.80
2018-12-22T23:55:56.855Z,5.80
2018-12-22T23:58:25.228Z,5.80
